• Join FlightAware (Why Join?)
  • Login
  • US Flag 
11:49PM EDT


 

Airport Tracker/Info


-or-


 

Live Flight TrackerFlight Track Log ✈ UAL4108 ✈ 05-Sep-2013 ✈ KIAH - KDAL

Flight Track Log - Related Links

Times and Time Zones

All times are in EDT time to prevent confusion due to time zone crossing. See the UAL4108 flight status page for this flight to view local times or setup timezone preferences in your user account.

Time Position Orientation Groundspeed Altitude Reporting Facility
EDT Latitude Longitude Course Direction KTS MPH feet Rate Location/Type
10:52PM 29.9642 -95.3481 346° North 166 191 600  Level Houston Center
10:53PM 29.9453 -95.3697 225° Southwest 197 227 2,000 2,280 Climbing Houston Center
10:53PM 29.9919 -95.3978 332° Northwest 241 277 4,100 2,220 Climbing Houston Center
10:55PM 30.2532 -95.4044 349° North  Level FlightAware Approximate
10:55PM 30.0703 -95.4097 352° North 237 273 7,100  Level Houston Center
10:56PM 30.3441 -95.4246 349° North  Level FlightAware Approximate
10:56PM 30.1458 -95.4217 352° North 268 308 9,500  Level Houston Center
10:57PM 30.4344 -95.4479 346° North  Level FlightAware Approximate
10:57PM 30.2281 -95.4339 353° North 291 335 10,700  Level Houston Center
10:58PM 30.3456 -95.4511 353° North 343 395 12,000 1,500 Climbing Houston Center
10:59PM 30.4478 -95.4661 353° North 365 420 13,800 1,800 Climbing Houston Center
11:00PM 30.5478 -95.4803 353° North 363 418 15,700 1,440 Climbing Houston Center
11:01PM 30.6469 -95.4986 351° North 361 415 16,800 960 Climbing Houston Center
11:02PM 30.7475 -95.5317 344° North 368 423 17,700 900 Climbing Houston Center
11:03PM 30.8506 -95.5808 338° Northwest 388 447 18,700 960 Climbing Houston Center
11:04PM 30.9550 -95.6292 338° Northwest 397 457 19,700 600 Climbing Houston Center
11:05PM 31.0633 -95.6814 338° Northwest 412 474 20,000 120 Climbing Houston Center
11:06PM 31.1756 -95.7336 338° Northwest 428 493 20,000  Level Houston Center
11:07PM 31.2883 -95.7853 339° North 432 497 20,000  Level Houston Center
11:08PM 31.4003 -95.8389 338° Northwest 432 497 20,000  Level Houston Center
11:09PM 31.5131 -95.8931 338° Northwest 436 502 20,000  Level Houston Center
11:10PM 31.6247 -95.9461 338° Northwest 432 497 20,000  Level Houston Center
11:11PM 31.7381 -96.0000 338° Northwest 436 502 20,000  Level Houston Center
11:12PM 31.8489 -96.0536 338° Northwest 432 497 20,000 -840 Level Houston Center
11:13PM 31.9686 -96.1117 338° Northwest 434 499 18,400 -1,800 Descending Houston Center
11:14PM 32.0744 -96.1628 338° Northwest 414 476 16,400 -2,040 Descending Houston Center
11:15PM 32.1764 -96.2111 338° Northwest 395 455 14,300 -2,220 Descending Houston Center
11:16PM 32.2667 -96.2667 333° Northwest 391 450 12,400 -2,100 Descending Dallas / Fort Worth TRACON
11:17PM 32.3500 -96.3167 333° Northwest 377 434 10,700 -1,380 Descending Dallas / Fort Worth TRACON
11:18PM 32.4333 -96.3667 333° Northwest 366 421 10,000 -540 Descending Dallas / Fort Worth TRACON
11:18PM 32.4703 -96.3914 331° Northwest 367 422 10,000  Level Fort Worth Center
11:19PM 32.5689 -96.4494 334° Northwest 360 414 10,000  Level Fort Worth Center
11:20PM 32.6525 -96.5006 333° Northwest 365 420 10,000  Level Fort Worth Center
11:21PM 32.7408 -96.5761 324° Northwest 365 420 10,000 -420 Level Fort Worth Center
11:22PM 32.7975 -96.6350 319° Northwest 326 375 9,200 -1,800 Descending Fort Worth Center
11:23PM 32.8333 -96.6667 323° Northwest 284 327 7,200 -3,120 Descending Dallas / Fort Worth TRACON
11:24PM 32.9000 -96.7333 320° Northwest 284 327 4,700 -2,220 Descending Dallas / Fort Worth TRACON
11:25PM 32.9333 -96.8000 301° West 273 314 3,000 -1,320 Descending Dallas / Fort Worth TRACON
11:26PM 32.9167 -96.8833 257° West 207 238 2,000 -720 Descending Dallas / Fort Worth TRACON
11:27PM 32.8833 -96.9000 203° Southwest 140 161 1,600 -720 Descending Dallas / Fort Worth TRACON
11:28PM 32.8667 -96.8667 121° Southeast 123 142 700 -900 Descending Dallas / Fort Worth TRACON